Time;durP1;ratioP1;P1;durP2;ratioP2;P2;SDS_P1;SDS_P2;PMS_P1;PMS_P2;Temp;Humidity;BMP_temperature;BMP_pressure;BME280_temperature;BME280_humidity;BME280_pressure;Samples;Min_cycle;Max_cycle;Signal;HPM_P1;HPM_P2
2021/07/26 00:00:58;;;;;;;5.90;5.35;;;;;;;17.74;79.52;100469.31;4391433;32;20081;-69
2021/07/26 00:03:23;;;;;;;5.45;5.25;;;;;;;17.68;80.32;100467.16;4391817;32;20069;-69
2021/07/26 00:05:56;;;;;;;5.30;5.00;;;;;;;17.71;79.85;100472.22;4379726;32;20825;-69
2021/07/26 00:08:21;;;;;;;;;;;;;;;17.68;79.72;100456.53;4388591;32;20091;-69
2021/07/26 00:10:47;;;;;;;5.20;5.00;;;;;;;17.69;79.72;100476.81;4396130;32;20381;-69
2021/07/26 00:13:12;;;;;;;6.15;5.85;;;;;;;17.69;79.58;100455.59;4390552;32;20693;-68
2021/07/26 00:15:38;;;;;;;5.40;5.20;;;;;;;17.69;78.89;100450.28;4392334;32;20083;-68
2021/07/26 00:18:03;;;;;;;6.75;6.45;;;;;;;17.71;79.04;100459.78;4381980;32;20081;-69
2021/07/26 00:20:28;;;;;;;5.20;5.00;;;;;;;17.71;78.95;100453.66;4399728;32;20510;-69
2021/07/26 00:22:54;;;;;;;5.40;5.20;;;;;;;17.72;77.88;100460.63;4384874;32;20096;-69
2021/07/26 00:25:21;;;;;;;5.00;4.80;;;;;;;17.72;78.17;100455.31;4387602;32;20151;-69
2021/07/26 00:27:47;;;;;;;5.15;4.95;;;;;;;17.53;77.55;100419.75;4373885;32;20080;-69
2021/07/26 00:30:12;;;;;;;5.20;5.00;;;;;;;17.72;77.49;100450.87;4386956;32;20092;-69
2021/07/26 00:32:37;;;;;;;5.40;5.12;;;;;;;17.70;77.51;100460.78;4380210;32;20215;-68
2021/07/26 00:35:03;;;;;;;5.00;4.80;;;;;;;17.70;78.19;100454.59;4392553;32;20060;-69
2021/07/26 00:37:29;;;;;;;5.20;5.00;;;;;;;17.28;77.93;100423.66;4385096;32;20096;-69
2021/07/26 00:39:54;;;;;;;5.20;5.00;;;;;;;17.67;78.13;100454.88;4393845;32;20655;-68
2021/07/26 00:42:20;;;;;;;5.10;4.90;;;;;;;17.64;77.37;100452.47;4378203;32;20845;-69
2021/07/26 00:44:45;;;;;;;5.20;5.00;;;;;;;17.63;77.80;100461.44;4397997;32;20990;-69
2021/07/26 00:47:11;;;;;;;6.80;6.50;;;;;;;17.60;78.17;100461.69;4381514;32;20571;-68
2021/07/26 00:49:36;;;;;;;5.28;5.07;;;;;;;17.52;77.27;100449.91;4397028;32;20073;-69
2021/07/26 00:52:01;;;;;;;6.55;6.25;;;;;;;17.40;77.93;100419.13;4377400;32;20065;-69
2021/07/26 00:54:28;;;;;;;5.20;5.00;;;;;;;17.49;77.53;100452.00;4374309;32;20076;-68
2021/07/26 00:56:53;;;;;;;5.18;4.97;;;;;;;17.14;78.29;100400.97;4409211;32;20081;-68
2021/07/26 00:59:19;;;;;;;5.40;5.20;;;;;;;17.43;77.69;100450.69;4387971;32;20101;-68
2021/07/26 01:01:44;;;;;;;5.25;4.97;;;;;;;17.38;77.64;100452.03;4393100;32;20073;-68
2021/07/26 01:04:10;;;;;;;6.57;6.25;;;;;;;17.33;78.63;100447.16;4381059;32;20139;-68
2021/07/26 01:06:35;;;;;;;5.80;5.50;;;;;;;17.35;78.89;100450.50;4391587;32;20090;-68
2021/07/26 01:09:01;;;;;;;6.62;6.15;;;;;;;17.32;78.80;100453.44;4386604;32;20083;-68
2021/07/26 01:11:27;;;;;;;5.20;4.90;;;;;;;17.28;78.93;100447.53;4390200;32;20065;-68
2021/07/26 01:13:52;;;;;;;5.10;4.90;;;;;;;17.08;79.27;100421.88;4392279;32;20091;-69
2021/07/26 01:16:18;;;;;;;5.30;5.00;;;;;;;17.25;79.38;100452.25;4391707;32;20859;-68
2021/07/26 01:18:44;;;;;;;5.10;4.90;;;;;;;17.21;78.50;100451.66;4379320;32;20232;-68
2021/07/26 01:21:13;;;;;;;6.43;6.12;;;;;;;17.20;78.36;100455.31;4376920;32;20066;-68
2021/07/26 01:23:43;;;;;;;5.35;5.03;;;;;;;17.13;79.75;100452.31;4393090;32;20833;-68
2021/07/26 01:26:10;;;;;;;6.55;6.25;;;;;;;17.10;79.72;100449.94;4382642;32;20064;-68
2021/07/26 01:28:40;;;;;;;5.00;4.80;;;;;;;17.05;79.29;100446.81;4394095;32;20065;-68
2021/07/26 01:31:06;;;;;;;6.30;6.00;;;;;;;17.03;80.45;100450.56;4384289;32;20074;-69
2021/07/26 01:33:31;;;;;;;5.00;4.80;;;;;;;17.02;80.27;100443.56;4390689;32;20994;-68
2021/07/26 01:35:57;;;;;;;5.00;4.80;;;;;;;17.01;80.59;100445.38;4393232;32;20077;-69
2021/07/26 01:38:22;;;;;;;4.82;4.62;;;;;;;16.95;79.99;100453.84;4390277;32;20215;-68
2021/07/26 01:40:53;;;;;;;5.25;5.05;;;;;;;16.93;80.47;100447.84;4392140;32;20836;-68
2021/07/26 01:43:18;;;;;;;5.00;4.80;;;;;;;16.91;80.78;100455.06;4394045;32;20078;-69
2021/07/26 01:46:08;;;;;;;5.20;5.00;;;;;;;16.88;80.79;100458.00;4388211;32;20061;-68
2021/07/26 01:48:53;;;;;;;5.30;5.00;;;;;;;15.99;81.35;100312.44;4395095;32;20207;-68
2021/07/26 01:51:48;;;;;;;5.10;4.75;;;;;;;16.71;80.92;100457.50;4397332;32;20139;-68
2021/07/26 01:54:13;;;;;;;4.95;4.75;;;;;;;16.91;81.78;100460.37;4379004;32;20154;-67
2021/07/26 01:56:39;;;;;;;5.12;4.93;;;;;;;16.91;80.95;100461.19;4392713;32;20087;-68
2021/07/26 01:59:04;;;;;;;6.68;6.37;;;;;;;16.95;81.36;100464.44;4378656;32;20076;-71
2021/07/26 02:01:30;;;;;;;5.22;5.03;;;;;;;16.96;81.02;100452.91;4396243;32;20092;-69
2021/07/26 02:03:55;;;;;;;5.50;5.25;;;;;;;16.96;81.59;100455.53;4385599;32;20555;-69
2021/07/26 02:06:20;;;;;;;5.18;4.97;;;;;;;16.63;81.17;100406.97;4372987;32;20127;-67
2021/07/26 02:08:46;;;;;;;5.22;5.03;;;;;;;16.98;81.12;100463.34;4383193;32;20082;-67
2021/07/26 02:11:11;;;;;;;5.93;5.65;;;;;;;16.97;80.80;100453.72;4375819;32;21068;-67
2021/07/26 02:13:36;;;;;;;5.20;5.00;;;;;;;16.99;80.91;100449.97;4386274;32;20079;-67
2021/07/26 02:16:02;;;;;;;6.40;6.10;;;;;;;16.99;80.80;100451.78;4385115;32;20065;-70
2021/07/26 02:18:27;;;;;;;4.90;4.70;;;;;;;16.99;81.27;100452.62;4372905;32;20069;-69
2021/07/26 02:20:53;;;;;;;5.50;5.20;;;;;;;16.98;80.55;100464.22;4391361;32;20192;-71
2021/07/26 02:23:18;;;;;;;5.62;5.40;;;;;;;16.97;80.47;100465.16;4375663;32;20361;-69
2021/07/26 02:25:43;;;;;;;5.07;4.87;;;;;;;16.97;81.64;100478.41;4387089;32;20098;-69
2021/07/26 02:28:09;;;;;;;6.68;6.37;;;;;;;16.19;80.97;100347.03;4368870;32;20900;-69
2021/07/26 02:30:34;;;;;;;5.40;5.20;;;;;;;16.94;81.14;100473.38;4390837;32;20078;-69
2021/07/26 02:33:00;;;;;;;6.55;6.25;;;;;;;16.93;80.96;100477.00;4382538;32;20086;-69
2021/07/26 02:35:27;;;;;;;5.45;5.15;;;;;;;16.90;81.17;100485.22;4376470;32;20617;-69
2021/07/26 02:37:53;;;;;;;4.95;4.75;;;;;;;16.89;81.67;100486.16;4395845;32;20081;-70
2021/07/26 02:40:18;;;;;;;5.10;4.90;;;;;;;16.72;81.44;100458.38;4378432;32;20091;-69
2021/07/26 02:42:44;;;;;;;5.20;5.00;;;;;;;16.92;82.01;100485.94;4385926;32;20079;-69
2021/07/26 02:45:09;;;;;;;6.65;6.35;;;;;;;16.93;82.34;100487.59;4372441;32;20571;-69
2021/07/26 02:47:35;;;;;;;5.20;5.00;;;;;;;16.95;81.96;100490.97;4391261;32;20097;-68
2021/07/26 02:50:00;;;;;;;6.37;6.07;;;;;;;16.21;82.06;100367.13;4386588;32;20566;-69
2021/07/26 02:52:26;;;;;;;5.20;5.00;;;;;;;16.97;81.45;100490.84;4382660;32;20159;-69
2021/07/26 02:54:51;;;;;;;5.20;5.00;;;;;;;16.96;81.42;100492.66;4402037;32;20080;-69
2021/07/26 02:57:16;;;;;;;5.00;4.80;;;;;;;16.94;81.26;100491.94;4375758;32;20673;-70
2021/07/26 02:59:42;;;;;;;4.80;4.60;;;;;;;16.96;82.18;100497.97;4382874;32;20065;-69
2021/07/26 03:02:07;;;;;;;5.07;4.87;;;;;;;16.96;81.46;100505.91;4377527;32;20072;-69
2021/07/26 03:04:32;;;;;;;5.25;5.05;;;;;;;16.66;82.38;100456.22;4383415;32;20077;-69
2021/07/26 03:06:58;;;;;;;6.68;6.35;;;;;;;16.97;81.31;100501.44;4393310;32;20575;-70
2021/07/26 03:09:23;;;;;;;4.90;4.70;;;;;;;16.96;81.68;100505.91;4375999;32;20069;-69
2021/07/26 03:11:48;;;;;;;4.90;4.70;;;;;;;16.97;81.36;100512.06;4394253;32;20081;-69
2021/07/26 03:14:14;;;;;;;5.30;5.10;;;;;;;16.99;81.91;100510.94;4378892;32;20060;-70
2021/07/26 03:16:39;;;;;;;5.50;5.10;;;;;;;17.02;81.54;100509.84;4378030;32;20266;-69
2021/07/26 03:19:04;;;;;;;6.65;6.35;;;;;;;17.03;81.61;100516.84;4389653;32;20073;-69
2021/07/26 03:21:30;;;;;;;5.40;5.10;;;;;;;17.06;81.40;100519.22;4380372;32;20052;-69
2021/07/26 03:23:55;;;;;;;5.60;5.35;;;;;;;17.11;80.96;100517.06;4389476;32;20131;-70
2021/07/26 03:26:21;;;;;;;5.00;4.80;;;;;;;17.14;80.74;100520.28;4378890;32;20073;-69
2021/07/26 03:28:46;;;;;;;5.10;4.90;;;;;;;17.07;80.79;100505.00;4385365;32;20084;-68
2021/07/26 03:31:12;;;;;;;6.05;5.75;;;;;;;17.06;81.38;100520.09;4382176;32;20402;-69
2021/07/26 03:33:37;;;;;;;4.97;4.78;;;;;;;17.03;81.82;100517.69;4390981;32;20107;-69
2021/07/26 03:36:03;;;;;;;6.68;6.37;;;;;;;16.80;81.59;100510.72;4381208;32;20087;-69
2021/07/26 03:38:29;;;;;;;4.90;4.70;;;;;;;16.97;82.14;100518.19;4389144;32;20477;-69
2021/07/26 03:40:54;;;;;;;5.12;4.90;;;;;;;15.87;81.49;100369.84;4376881;32;20068;-70
2021/07/26 03:43:19;;;;;;;5.25;5.05;;;;;;;16.89;81.41;100525.94;4385425;32;20092;-70
2021/07/26 03:45:45;;;;;;;4.72;4.53;;;;;;;16.84;82.47;100522.78;4387475;32;20076;-69
2021/07/26 03:48:10;;;;;;;6.45;6.15;;;;;;;16.82;81.62;100527.38;4383403;32;20065;-69
2021/07/26 03:50:36;;;;;;;5.22;5.03;;;;;;;16.79;81.85;100524.97;4390887;32;20315;-69
2021/07/26 03:53:01;;;;;;;7.07;6.68;;;;;;;16.57;82.41;100497.53;4385867;32;20085;-70
2021/07/26 03:55:30;;;;;;;4.97;4.78;;;;;;;16.73;82.74;100524.47;4385537;32;20196;-69
2021/07/26 03:57:58;;;;;;;5.47;5.25;;;;;;;16.70;82.83;100519.44;4384430;32;20056;-69
2021/07/26 04:00:24;;;;;;;5.40;5.20;;;;;;;16.79;81.87;100528.44;4384534;32;20166;-71
2021/07/26 04:03:04;;;;;;;5.07;4.87;;;;;;;16.80;81.85;100524.84;4394236;32;20168;-71
2021/07/26 04:07:56;;;;;;;5.70;5.45;;;;;;;15.67;82.30;100376.66;4403643;32;20083;-71
2021/07/26 04:10:21;;;;;;;5.70;5.30;;;;;;;16.84;82.91;100528.97;4371690;32;20677;-70
2021/07/26 04:12:50;;;;;;;5.30;5.00;;;;;;;16.94;81.85;100537.00;4390384;32;20077;-70
2021/07/26 04:15:15;;;;;;;5.30;5.10;;;;;;;17.02;82.04;100533.69;4376088;32;20169;-71
2021/07/26 04:17:41;;;;;;;5.10;4.90;;;;;;;17.15;81.67;100532.56;4392189;32;20184;-71
2021/07/26 04:20:07;;;;;;;7.35;6.95;;;;;;;17.34;81.15;100528.41;4384570;32;20120;-70
2021/07/26 04:22:35;;;;;;;18.08;17.17;;;;;;;16.42;81.03;100361.91;4368233;32;20397;-72
2021/07/26 04:25:00;;;;;;;6.35;6.05;;;;;;;17.30;80.23;100468.63;4340190;32;20338;-71
2021/07/26 04:27:26;;;;;;;5.43;5.15;;;;;;;17.82;79.59;100530.56;4391423;32;20073;-71
2021/07/26 04:29:52;;;;;;;5.28;5.00;;;;;;;17.87;79.55;100532.84;4390660;32;20543;-68
2021/07/26 04:32:17;;;;;;;5.50;5.30;;;;;;;17.94;79.42;100540.16;4379307;32;20077;-71
2021/07/26 04:34:43;;;;;;;4.90;4.70;;;;;;;18.06;78.78;100535.59;4393739;32;20357;-70
2021/07/26 04:37:08;;;;;;;6.35;6.05;;;;;;;18.04;77.76;100505.69;4386200;32;20251;-68
2021/07/26 04:39:33;;;;;;;5.40;5.20;;;;;;;18.23;77.21;100522.66;4385042;32;20554;-70
2021/07/26 04:41:59;;;;;;;5.12;4.93;;;;;;;18.38;78.04;100533.75;4391811;32;20401;-70
2021/07/26 04:44:24;;;;;;;5.87;5.57;;;;;;;17.77;77.77;100437.19;4385821;32;20073;-71
2021/07/26 04:46:49;;;;;;;5.05;4.85;;;;;;;18.36;78.13;100536.53;4395819;32;20066;-71
2021/07/26 04:49:15;;;;;;;5.50;5.30;;;;;;;18.40;77.90;100534.47;4390651;32;20061;-70
2021/07/26 04:51:40;;;;;;;5.97;5.57;;;;;;;18.38;77.81;100536.41;4384706;32;20057;-71
2021/07/26 04:54:05;;;;;;;5.32;5.03;;;;;;;18.37;77.99;100553.34;4395654;32;20469;-71
2021/07/26 04:56:31;;;;;;;5.70;5.40;;;;;;;18.32;77.73;100548.41;4370874;32;20162;-71
2021/07/26 04:58:57;;;;;;;5.45;5.15;;;;;;;18.37;77.14;100556.84;4386658;32;20081;-69
2021/07/26 05:01:22;;;;;;;5.45;5.20;;;;;;;18.37;77.70;100548.84;4385414;32;20099;-71
2021/07/26 05:03:47;;;;;;;5.28;5.07;;;;;;;18.45;77.96;100553.50;4382314;32;20065;-71
2021/07/26 05:06:13;;;;;;;5.97;5.68;;;;;;;17.44;76.58;100377.25;4384687;32;20065;-71
2021/07/26 05:08:38;;;;;;;4.82;4.62;;;;;;;18.47;77.00;100564.84;4391152;32;20554;-71
2021/07/26 05:11:04;;;;;;;6.55;6.25;;;;;;;18.24;77.59;100524.31;4389390;32;20077;-70
2021/07/26 05:13:29;;;;;;;5.22;5.03;;;;;;;18.49;77.28;100560.22;4387540;32;20092;-70
2021/07/26 05:15:54;;;;;;;5.25;5.03;;;;;;;18.65;77.77;100557.91;4382433;32;20159;-71
2021/07/26 05:18:20;;;;;;;5.40;5.20;;;;;;;18.73;77.04;100563.38;4382594;32;20069;-71
2021/07/26 05:20:45;;;;;;;6.18;5.68;;;;;;;18.90;76.73;100555.72;4390938;32;20099;-68
2021/07/26 05:23:11;;;;;;;6.78;6.47;;;;;;;18.97;76.17;100554.22;4379289;32;20172;-69
2021/07/26 05:25:37;;;;;;;5.37;5.18;;;;;;;19.02;75.52;100553.78;4378364;32;20082;-72
2021/07/26 05:28:02;;;;;;;6.80;6.50;;;;;;;18.92;75.71;100536.03;4379491;32;20293;-69
2021/07/26 05:30:28;;;;;;;5.30;5.00;;;;;;;19.10;75.81;100559.25;4375838;32;20199;-70
2021/07/26 05:32:53;;;;;;;5.18;4.97;;;;;;;19.18;74.84;100553.25;4393480;32;20069;-69
2021/07/26 05:35:19;;;;;;;5.30;5.00;;;;;;;19.26;75.22;100558.72;4381679;32;20088;-69
2021/07/26 05:37:45;;;;;;;5.65;5.35;;;;;;;19.35;73.86;100563.22;4383026;32;20085;-68
2021/07/26 05:40:11;;;;;;;5.43;5.22;;;;;;;19.40;74.46;100562.78;4385825;32;20540;-69
2021/07/26 05:42:36;;;;;;;5.40;5.20;;;;;;;19.45;74.38;100558.72;4383128;32;20113;-69
2021/07/26 05:45:04;;;;;;;5.30;5.10;;;;;;;19.62;73.79;100553.66;4374028;32;20642;-69
2021/07/26 05:47:30;;;;;;;5.37;5.18;;;;;;;19.75;73.05;100554.22;4387556;32;20135;-69
2021/07/26 05:49:55;;;;;;;5.70;5.45;;;;;;;19.84;73.01;100552.53;4393222;32;20060;-69
2021/07/26 05:52:21;;;;;;;6.00;5.60;;;;;;;19.74;72.49;100560.53;4381369;32;20802;-72
2021/07/26 05:54:47;;;;;;;5.97;5.57;;;;;;;19.89;72.09;100555.59;4388629;32;20077;-70
2021/07/26 05:57:14;;;;;;;6.12;5.82;;;;;;;20.05;72.08;100561.16;4377621;32;21190;-70
2021/07/26 05:59:39;;;;;;;5.28;5.07;;;;;;;20.61;69.91;100556.75;4376888;32;20954;-69
2021/07/26 06:02:05;;;;;;;6.50;6.20;;;;;;;21.29;66.88;100550.13;4373491;32;20080;-69
2021/07/26 06:04:30;;;;;;;5.50;5.20;;;;;;;21.41;65.23;100546.22;4378357;32;20092;-71
2021/07/26 06:06:57;;;;;;;5.70;5.45;;;;;;;21.83;64.61;100550.03;4384203;32;20128;-70
2021/07/26 06:09:23;;;;;;;5.60;5.30;;;;;;;22.28;63.78;100551.66;4379149;32;20084;-69
2021/07/26 06:11:51;;;;;;;5.43;5.12;;;;;;;22.23;62.20;100548.59;4381276;32;20643;-69
2021/07/26 06:14:16;;;;;;;6.03;5.72;;;;;;;21.96;63.37;100542.44;4382149;32;20063;-69
2021/07/26 06:16:46;;;;;;;5.90;5.60;;;;;;;21.97;63.70;100551.28;4388432;32;20057;-71
2021/07/26 06:19:12;;;;;;;7.03;6.72;;;;;;;21.97;63.75;100543.28;4384917;32;20653;-72
2021/07/26 06:21:44;;;;;;;5.60;5.35;;;;;;;21.83;63.61;100529.53;4379567;32;20290;-71
2021/07/26 06:24:10;;;;;;;7.10;6.80;;;;;;;21.68;64.49;100537.25;4400826;32;20478;-71
2021/07/26 06:26:35;;;;;;;5.45;5.25;;;;;;;21.67;63.82;100543.59;4383856;32;20081;-70
2021/07/26 06:29:00;;;;;;;7.35;6.87;;;;;;;20.67;64.54;100382.81;4380094;32;20867;-71
2021/07/26 06:31:26;;;;;;;5.68;5.37;;;;;;;21.61;64.82;100554.06;4377553;32;20154;-71
2021/07/26 06:33:51;;;;;;;5.50;5.30;;;;;;;21.48;65.13;100557.97;4394839;32;20571;-70
2021/07/26 06:36:16;;;;;;;5.68;5.47;;;;;;;21.47;64.58;100545.63;4373675;32;20138;-71
2021/07/26 06:38:42;;;;;;;5.50;5.20;;;;;;;21.48;65.03;100555.28;4383557;32;20080;-71
2021/07/26 06:41:07;;;;;;;6.68;6.37;;;;;;;21.65;64.27;100558.09;4377783;32;20573;-70
2021/07/26 06:43:32;;;;;;;5.20;5.00;;;;;;;21.82;64.52;100556.38;4378339;32;20070;-71
2021/07/26 06:45:58;;;;;;;6.68;6.37;;;;;;;21.00;63.80;100447.09;4384044;32;20085;-71
2021/07/26 06:48:24;;;;;;;5.90;5.57;;;;;;;22.21;63.63;100563.94;4393831;32;20084;-71
2021/07/26 06:50:49;;;;;;;5.60;5.30;;;;;;;22.46;61.61;100570.31;4385728;32;20929;-71
2021/07/26 06:53:15;;;;;;;5.43;5.10;;;;;;;22.50;61.78;100577.84;4396942;32;20084;-71
2021/07/26 06:55:41;;;;;;;5.40;5.20;;;;;;;22.60;61.47;100574.19;4374812;32;20064;-71
2021/07/26 06:58:07;;;;;;;6.97;6.68;;;;;;;22.82;60.62;100572.78;4386073;32;20431;-71
2021/07/26 07:00:32;;;;;;;5.45;5.25;;;;;;;22.78;61.64;100574.09;4373409;32;20172;-70
2021/07/26 07:02:57;;;;;;;7.28;6.87;;;;;;;22.62;60.34;100575.72;4395677;32;20558;-70
2021/07/26 07:05:23;;;;;;;5.80;5.50;;;;;;;22.59;62.27;100578.72;4397041;32;20478;-71
2021/07/26 07:07:48;;;;;;;5.65;5.35;;;;;;;22.63;61.47;100579.22;4393962;32;20093;-71
2021/07/26 07:10:14;;;;;;;6.10;5.80;;;;;;;23.06;60.20;100580.06;4381018;32;20734;-70
2021/07/26 07:12:39;;;;;;;5.40;5.20;;;;;;;23.03;59.88;100575.87;4380212;32;20311;-70
2021/07/26 07:15:05;;;;;;;7.37;6.97;;;;;;;23.14;59.21;100576.56;4384249;32;20066;-70
2021/07/26 07:17:30;;;;;;;5.85;5.55;;;;;;;23.14;59.46;100576.56;4372655;32;20115;-70
2021/07/26 07:19:55;;;;;;;6.40;6.07;;;;;;;22.39;58.97;100462.28;4386186;32;20325;-71
2021/07/26 07:22:21;;;;;;;6.65;6.35;;;;;;;23.44;58.35;100569.72;4368464;32;20084;-73
2021/07/26 07:24:47;;;;;;;6.10;5.80;;;;;;;23.35;58.59;100550.09;4382078;32;20081;-69
2021/07/26 07:27:12;;;;;;;5.70;5.40;;;;;;;23.35;58.99;100571.53;4396607;32;20073;-69
2021/07/26 07:29:38;;;;;;;5.60;5.40;;;;;;;23.48;57.72;100587.13;4392335;32;20387;-68
2021/07/26 07:32:04;;;;;;;6.78;6.47;;;;;;;23.67;56.97;100583.25;4383426;32;20150;-69
2021/07/26 07:34:29;;;;;;;5.65;5.40;;;;;;;23.67;57.12;100581.44;4388968;32;20083;-67
2021/07/26 07:36:57;;;;;;;5.78;5.47;;;;;;;23.61;56.62;100583.94;4384585;32;20097;-70
2021/07/26 07:39:22;;;;;;;5.97;5.68;;;;;;;23.60;54.09;100579.59;4389352;32;20087;-69
2021/07/26 07:41:47;;;;;;;5.40;5.20;;;;;;;23.42;55.34;100551.12;4385942;32;20085;-69
2021/07/26 07:44:13;;;;;;;6.00;5.70;;;;;;;23.60;54.56;100575.06;4395963;32;20082;-70
2021/07/26 07:46:38;;;;;;;5.53;5.32;;;;;;;21.82;55.60;100358.69;4397111;32;20073;-71
2021/07/26 07:49:05;;;;;;;6.80;6.50;;;;;;;23.48;55.77;100582.59;4400213;32;20535;-71
2021/07/26 07:51:31;;;;;;;5.90;5.60;;;;;;;23.75;55.26;100583.25;4391152;32;20108;-71
2021/07/26 07:53:58;;;;;;;6.47;6.12;;;;;;;23.69;53.56;100581.25;4388690;32;20667;-72
2021/07/26 07:56:23;;;;;;;5.65;5.43;;;;;;;23.71;54.86;100584.59;4389963;32;20087;-71
2021/07/26 07:58:51;;;;;;;5.70;5.40;;;;;;;23.94;53.56;100592.00;4388099;32;20069;-72
2021/07/26 08:01:17;;;;;;;5.80;5.50;;;;;;;24.18;53.23;100583.88;4385322;32;20093;-73
2021/07/26 08:03:42;;;;;;;5.75;5.45;;;;;;;24.15;52.96;100586.91;4386018;32;20077;-71
2021/07/26 08:06:08;;;;;;;7.25;6.95;;;;;;;24.07;51.71;100581.56;4381528;32;20645;-71
2021/07/26 08:08:33;;;;;;;6.20;5.90;;;;;;;23.88;53.32;100582.78;4401418;32;20084;-70
2021/07/26 08:10:58;;;;;;;6.97;6.68;;;;;;;23.89;53.82;100595.16;4385568;32;20784;-73
2021/07/26 08:13:24;;;;;;;5.90;5.50;;;;;;;24.05;53.40;100588.94;4385461;32;20085;-71
2021/07/26 08:15:51;;;;;;;5.70;5.40;;;;;;;24.15;51.92;100583.38;4389770;32;20140;-72
2021/07/26 08:18:16;;;;;;;5.70;5.40;;;;;;;24.03;53.77;100591.78;4393056;32;20136;-72
2021/07/26 08:20:42;;;;;;;5.65;5.35;;;;;;;24.03;52.99;100574.88;4396283;32;20056;-71
2021/07/26 08:23:07;;;;;;;7.03;6.68;;;;;;;23.16;53.14;100433.50;4375655;32;20108;-71
2021/07/26 08:25:32;;;;;;;5.60;5.30;;;;;;;24.21;53.30;100588.88;4381569;32;20060;-70
2021/07/26 08:27:58;;;;;;;6.82;6.28;;;;;;;24.25;52.65;100590.22;4384603;32;20666;-74
2021/07/26 08:30:33;;;;;;;5.90;5.60;;;;;;;24.25;52.53;100594.75;4374645;32;20097;-71
2021/07/26 08:32:59;;;;;;;6.57;6.28;;;;;;;23.93;52.92;100592.97;4383725;32;20081;-70
2021/07/26 08:35:24;;;;;;;5.40;5.20;;;;;;;23.96;54.08;100589.97;4379621;32;20122;-73
2021/07/26 08:37:50;;;;;;;5.62;5.32;;;;;;;23.86;54.00;100590.16;4387851;32;20080;-73
2021/07/26 08:40:16;;;;;;;5.37;5.18;;;;;;;24.03;53.94;100590.94;4388413;32;20065;-69
2021/07/26 08:42:41;;;;;;;5.68;5.37;;;;;;;24.16;53.24;100590.44;4388163;32;20181;-70
2021/07/26 08:45:08;;;;;;;6.93;6.62;;;;;;;24.24;53.47;100590.41;4369456;32;20641;-71
2021/07/26 08:47:34;;;;;;;6.12;5.82;;;;;;;24.33;52.26;100593.91;4388878;32;20104;-71
2021/07/26 08:50:03;;;;;;;5.40;5.20;;;;;;;24.05;52.60;100586.25;4386384;32;20085;-72
2021/07/26 08:52:31;;;;;;;5.43;5.22;;;;;;;24.33;53.36;100601.94;4374391;32;20429;-74
2021/07/26 08:54:57;;;;;;;6.22;5.93;;;;;;;24.44;52.31;100598.91;4389730;32;20164;-74
2021/07/26 08:57:22;;;;;;;5.55;5.25;;;;;;;24.63;53.07;100598.50;4372780;32;21781;-74
2021/07/26 08:59:48;;;;;;;5.50;5.30;;;;;;;24.12;52.34;100500.63;4386920;32;20100;-74
2021/07/26 09:02:13;;;;;;;5.70;5.40;;;;;;;25.03;50.06;100598.47;4401602;32;20115;-73
2021/07/26 09:04:39;;;;;;;6.37;6.03;;;;;;;25.39;49.20;100598.75;4389543;32;20093;-72
2021/07/26 09:07:05;;;;;;;7.12;6.82;;;;;;;25.18;49.57;100606.63;4383806;32;20148;-72
2021/07/26 09:09:45;;;;;;;5.80;5.50;;;;;;;24.23;50.04;100425.97;4388010;32;20095;-72
2021/07/26 09:12:12;;;;;;;6.97;6.68;;;;;;;25.04;50.14;100605.53;4394962;32;20054;-72
2021/07/26 09:14:38;;;;;;;5.53;5.22;;;;;;;25.17;49.20;100600.38;4385412;32;20087;-74
2021/07/26 09:17:05;;;;;;;6.78;6.47;;;;;;;25.33;50.38;100593.28;4391455;32;20616;-73
2021/07/26 09:19:58;;;;;;;5.70;5.40;;;;;;;25.57;48.02;100585.00;4390431;32;20065;-72
2021/07/26 09:22:30;;;;;;;5.60;5.30;;;;;;;25.77;48.47;100590.72;4396795;32;20191;-72
2021/07/26 09:25:21;;;;;;;6.35;6.05;;;;;;;25.56;47.05;100593.25;4404301;32;20088;-73
2021/07/26 09:28:04;;;;;;;5.70;5.40;;;;;;;25.17;48.55;100596.87;4399601;32;20081;-72
2021/07/26 09:30:39;;;;;;;5.75;5.45;;;;;;;25.25;48.20;100599.53;4388537;32;20099;-72
2021/07/26 09:33:24;;;;;;;7.28;6.97;;;;;;;25.35;47.91;100596.63;4392453;32;20614;-71
2021/07/26 09:36:12;;;;;;;5.78;5.47;;;;;;;25.68;48.40;100594.50;4402454;32;20099;-73
2021/07/26 09:38:39;;;;;;;6.10;5.70;;;;;;;26.00;46.63;100598.78;4375238;32;20080;-70
2021/07/26 09:41:05;;;;;;;7.20;6.90;;;;;;;26.37;45.05;100596.19;4382721;32;20572;-70
2021/07/26 09:43:31;;;;;;;5.78;5.47;;;;;;;26.26;45.32;100594.81;4390727;32;20196;-70
2021/07/26 09:45:56;;;;;;;5.70;5.40;;;;;;;26.02;46.40;100596.72;4388714;32;20077;-69
2021/07/26 09:48:26;;;;;;;5.80;5.50;;;;;;;26.32;45.01;100598.59;4385936;32;20461;-70
2021/07/26 09:50:52;;;;;;;6.37;5.97;;;;;;;26.43;46.51;100598.12;4386504;32;20088;-69
2021/07/26 09:53:19;;;;;;;5.70;5.40;;;;;;;26.37;46.28;100601.56;4380420;32;20138;-70
2021/07/26 09:55:51;;;;;;;5.70;5.40;;;;;;;26.20;46.38;100598.22;4394539;32;20077;-69
2021/07/26 09:58:18;;;;;;;5.93;5.62;;;;;;;26.12;45.99;100609.91;4380410;32;20375;-69
2021/07/26 10:00:44;;;;;;;5.90;5.60;;;;;;;26.29;45.58;100601.66;4383011;32;20087;-69
2021/07/26 10:03:11;;;;;;;6.78;6.47;;;;;;;26.38;45.31;100597.84;4389081;32;20577;-69
2021/07/26 10:05:38;;;;;;;5.80;5.50;;;;;;;26.24;44.03;100613.81;4391359;32;20176;-69
2021/07/26 10:08:04;;;;;;;7.18;6.78;;;;;;;25.61;45.05;100561.31;4395334;32;20073;-69
2021/07/26 10:10:31;;;;;;;5.43;5.22;;;;;;;25.70;46.65;100603.22;4376824;32;20097;-73
2021/07/26 10:12:57;;;;;;;6.20;5.90;;;;;;;25.93;46.06;100605.06;4379635;32;20077;-70
2021/07/26 10:15:23;;;;;;;5.62;5.43;;;;;;;25.52;46.24;100591.94;4390349;32;20151;-69
2021/07/26 10:17:48;;;;;;;5.40;5.20;;;;;;;25.64;45.63;100599.41;4392272;32;20097;-69
2021/07/26 10:20:28;;;;;;;5.72;5.43;;;;;;;26.26;45.99;100594.81;4396384;32;20091;-69
2021/07/26 10:23:04;;;;;;;5.65;5.43;;;;;;;26.48;45.79;100593.03;4384039;32;20199;-69
2021/07/26 10:25:52;;;;;;;5.87;5.57;;;;;;;25.83;45.11;100592.66;4382920;32;20697;-70
2021/07/26 10:28:23;;;;;;;5.90;5.60;;;;;;;25.98;45.23;100594.56;4384911;32;20072;-69
2021/07/26 10:30:49;;;;;;;6.00;5.70;;;;;;;26.32;46.36;100588.69;4387907;32;20086;-69
2021/07/26 10:33:14;;;;;;;5.80;5.50;;;;;;;26.52;44.60;100583.56;4378025;32;20069;-69
2021/07/26 10:35:50;;;;;;;6.35;6.05;;;;;;;26.89;43.84;100576.34;4397744;32;20404;-69
2021/07/26 10:38:44;;;;;;;6.00;5.70;;;;;;;27.56;42.93;100579.72;4387974;32;20410;-70
2021/07/26 10:41:10;;;;;;;7.28;6.95;;;;;;;27.70;40.73;100580.66;4404974;32;20065;-70
2021/07/26 10:43:59;;;;;;;5.60;5.30;;;;;;;27.72;41.77;100582.13;4377890;32;20234;-70
2021/07/26 10:46:25;;;;;;;5.80;5.50;;;;;;;27.54;41.48;100598.78;4392557;32;20072;-69
2021/07/26 10:48:51;;;;;;;5.97;5.68;;;;;;;27.45;42.36;100594.56;4385077;32;20578;-69
2021/07/26 10:51:39;;;;;;;5.82;5.53;;;;;;;26.27;43.22;100414.34;4385389;32;20069;-69
2021/07/26 10:54:07;;;;;;;7.28;6.87;;;;;;;26.98;43.33;100583.31;4368748;32;20061;-69
2021/07/26 10:57:09;;;;;;;5.75;5.45;;;;;;;26.21;44.88;100592.66;4388781;32;20089;-69
2021/07/26 11:00:12;;;;;;;5.95;5.62;;;;;;;25.74;46.85;100617.13;4413937;32;20174;-69
2021/07/26 11:02:42;;;;;;;5.82;5.53;;;;;;;25.79;46.30;100580.63;4410371;32;21347;-69
2021/07/26 11:05:25;;;;;;;7.12;6.75;;;;;;;26.62;43.87;100580.59;4385069;32;20605;-69
2021/07/26 11:08:12;;;;;;;5.55;5.32;;;;;;;26.81;44.07;100587.25;4392318;32;20069;-68
2021/07/26 11:10:52;;;;;;;5.90;5.60;;;;;;;26.52;44.60;100580.00;4404348;32;20135;-71
2021/07/26 11:13:17;;;;;;;7.50;7.10;;;;;;;26.41;43.55;100582.16;4377955;32;20568;-69
2021/07/26 11:15:43;;;;;;;5.60;5.37;;;;;;;26.43;44.41;100573.91;4392805;32;20103;-70
2021/07/26 11:18:28;;;;;;;7.32;6.95;;;;;;;26.65;43.93;100578.34;4396640;32;20083;-72
2021/07/26 11:21:09;;;;;;;6.18;5.80;;;;;;;26.41;44.72;100578.66;4385863;32;21249;-69
2021/07/26 11:23:46;;;;;;;5.80;5.50;;;;;;;26.53;44.68;100577.16;4373753;32;20077;-73
2021/07/26 11:26:30;;;;;;;7.12;6.82;;;;;;;26.39;43.33;100572.63;4386747;32;20138;-72
2021/07/26 11:29:00;;;;;;;6.05;5.75;;;;;;;25.79;44.01;100407.75;4376488;32;20091;-69